sensor_id;sensor_type;location;lat;lon;timestamp;pressure;altitude;pressure_sealevel;temperature;humidity
71857;BME280;63344;46.980;28.882;2023-06-10T00:01:07;100236.81;;;17.66;63.31
71857;BME280;63344;46.980;28.882;2023-06-10T00:03:54;100236.19;;;17.63;63.48
71857;BME280;63344;46.980;28.882;2023-06-10T00:06:24;100236.44;;;17.60;63.63
71857;BME280;63344;46.980;28.882;2023-06-10T00:08:51;100242.13;;;17.55;63.60
71857;BME280;63344;46.980;28.882;2023-06-10T00:11:18;100239.06;;;17.48;64.10
71857;BME280;63344;46.980;28.882;2023-06-10T00:13:46;100236.59;;;17.45;64.19
71857;BME280;63344;46.980;28.882;2023-06-10T00:16:13;100237.78;;;17.41;64.16
71857;BME280;63344;46.980;28.882;2023-06-10T00:18:40;100238.13;;;17.37;64.19
71857;BME280;63344;46.980;28.882;2023-06-10T00:21:09;100246.28;;;17.35;64.40
71857;BME280;63344;46.980;28.882;2023-06-10T00:23:37;100239.44;;;17.31;64.24
71857;BME280;63344;46.980;28.882;2023-06-10T00:26:05;100227.19;;;17.27;64.20
71857;BME280;63344;46.980;28.882;2023-06-10T00:28:32;100238.94;;;17.26;64.59
71857;BME280;63344;46.980;28.882;2023-06-10T00:31:00;100237.44;;;17.22;64.89
71857;BME280;63344;46.980;28.882;2023-06-10T00:33:27;100246.03;;;17.14;64.93
71857;BME280;63344;46.980;28.882;2023-06-10T00:35:55;100240.28;;;17.07;65.17
71857;BME280;63344;46.980;28.882;2023-06-10T00:38:22;100246.03;;;17.01;65.77
71857;BME280;63344;46.980;28.882;2023-06-10T00:40:50;100249.16;;;16.95;65.98
71857;BME280;63344;46.980;28.882;2023-06-10T00:43:18;100240.72;;;16.88;66.05
71857;BME280;63344;46.980;28.882;2023-06-10T00:45:45;100242.66;;;16.86;66.09
71857;BME280;63344;46.980;28.882;2023-06-10T00:48:13;100239.31;;;16.83;66.12
71857;BME280;63344;46.980;28.882;2023-06-10T00:50:41;100242.09;;;16.81;65.94
71857;BME280;63344;46.980;28.882;2023-06-10T00:53:09;100239.81;;;16.75;65.85
71857;BME280;63344;46.980;28.882;2023-06-10T00:55:37;100248.09;;;16.72;66.68
71857;BME280;63344;46.980;28.882;2023-06-10T00:58:04;100246.59;;;16.68;66.99
71857;BME280;63344;46.980;28.882;2023-06-10T01:00:32;100244.13;;;16.65;67.35
71857;BME280;63344;46.980;28.882;2023-06-10T01:02:59;100249.72;;;16.62;67.19
71857;BME280;63344;46.980;28.882;2023-06-10T01:05:27;100243.91;;;16.55;66.95
71857;BME280;63344;46.980;28.882;2023-06-10T01:08:08;100252.94;;;16.54;67.02
71857;BME280;63344;46.980;28.882;2023-06-10T01:10:42;100252.38;;;16.49;67.44
71857;BME280;63344;46.980;28.882;2023-06-10T01:13:11;100260.66;;;16.46;67.58
71857;BME280;63344;46.980;28.882;2023-06-10T01:15:39;100254.00;;;16.39;67.65
71857;BME280;63344;46.980;28.882;2023-06-10T01:18:08;100262.34;;;16.34;67.54
71857;BME280;63344;46.980;28.882;2023-06-10T01:20:37;100254.63;;;16.29;67.66
71857;BME280;63344;46.980;28.882;2023-06-10T01:23:08;100260.19;;;16.26;67.87
71857;BME280;63344;46.980;28.882;2023-06-10T01:25:40;100259.44;;;16.24;67.56
71857;BME280;63344;46.980;28.882;2023-06-10T01:31:20;100263.41;;;16.19;68.04
71857;BME280;63344;46.980;28.882;2023-06-10T01:33:52;100265.41;;;16.15;68.22
71857;BME280;63344;46.980;28.882;2023-06-10T01:36:21;100268.53;;;16.09;69.04
71857;BME280;63344;46.980;28.882;2023-06-10T01:38:50;100271.41;;;16.06;69.18
71857;BME280;63344;46.980;28.882;2023-06-10T01:41:20;100268.94;;;16.03;69.08
71857;BME280;63344;46.980;28.882;2023-06-10T01:43:48;100269.25;;;15.98;69.22
71857;BME280;63344;46.980;28.882;2023-06-10T01:46:16;100271.28;;;15.95;69.31
71857;BME280;63344;46.980;28.882;2023-06-10T01:48:47;100273.19;;;15.92;69.28
71857;BME280;63344;46.980;28.882;2023-06-10T01:51:15;100275.97;;;15.91;69.52
71857;BME280;63344;46.980;28.882;2023-06-10T01:53:42;100279.63;;;15.90;69.38
71857;BME280;63344;46.980;28.882;2023-06-10T01:56:10;100280.47;;;15.90;69.34
71857;BME280;63344;46.980;28.882;2023-06-10T01:58:44;100281.22;;;15.92;69.38
71857;BME280;63344;46.980;28.882;2023-06-10T02:01:11;100275.88;;;15.92;69.94
71857;BME280;63344;46.980;28.882;2023-06-10T02:03:39;100281.22;;;15.92;69.80
71857;BME280;63344;46.980;28.882;2023-06-10T02:06:06;100284.84;;;15.91;69.88
71857;BME280;63344;46.980;28.882;2023-06-10T02:08:33;100284.09;;;15.89;69.84
71857;BME280;63344;46.980;28.882;2023-06-10T02:11:01;100286.03;;;15.87;70.03
71857;BME280;63344;46.980;28.882;2023-06-10T02:13:28;100280.03;;;15.84;70.03
71857;BME280;63344;46.980;28.882;2023-06-10T02:15:56;100288.16;;;15.82;70.44
71857;BME280;63344;46.980;28.882;2023-06-10T02:18:23;100297.28;;;15.80;70.25
71857;BME280;63344;46.980;28.882;2023-06-10T02:20:51;100289.34;;;15.78;70.73
71857;BME280;63344;46.980;28.882;2023-06-10T02:23:19;100295.63;;;15.77;70.73
71857;BME280;63344;46.980;28.882;2023-06-10T02:25:46;100288.56;;;15.76;70.53
71857;BME280;63344;46.980;28.882;2023-06-10T02:28:15;100292.19;;;15.75;70.64
71857;BME280;63344;46.980;28.882;2023-06-10T02:30:42;100294.03;;;15.75;71.47
71857;BME280;63344;46.980;28.882;2023-06-10T02:33:09;100290.41;;;15.76;71.19
71857;BME280;63344;46.980;28.882;2023-06-10T02:35:38;100293.84;;;15.78;71.19
71857;BME280;63344;46.980;28.882;2023-06-10T02:38:06;100297.38;;;15.78;71.11
71857;BME280;63344;46.980;28.882;2023-06-10T02:40:33;100299.19;;;15.78;71.21
71857;BME280;63344;46.980;28.882;2023-06-10T02:43:01;100299.28;;;15.76;71.33
71857;BME280;63344;46.980;28.882;2023-06-10T02:45:28;100298.13;;;15.80;71.04
71857;BME280;63344;46.980;28.882;2023-06-10T02:47:56;100300.78;;;15.80;71.47
71857;BME280;63344;46.980;28.882;2023-06-10T02:50:24;100305.09;;;15.83;71.67
71857;BME280;63344;46.980;28.882;2023-06-10T02:52:51;100299.72;;;15.83;71.26
71857;BME280;63344;46.980;28.882;2023-06-10T02:55:19;100309.38;;;15.85;71.63
71857;BME280;63344;46.980;28.882;2023-06-10T02:57:46;100308.09;;;15.91;71.53
71857;BME280;63344;46.980;28.882;2023-06-10T03:00:14;100313.53;;;16.04;71.64
71857;BME280;63344;46.980;28.882;2023-06-10T03:02:41;100316.38;;;16.28;71.93
71857;BME280;63344;46.980;28.882;2023-06-10T03:05:09;100304.16;;;16.49;72.21
71857;BME280;63344;46.980;28.882;2023-06-10T03:07:37;100311.38;;;16.75;72.43
71857;BME280;63344;46.980;28.882;2023-06-10T03:10:06;100317.75;;;16.99;72.09
71857;BME280;63344;46.980;28.882;2023-06-10T03:12:33;100311.84;;;17.20;72.18
71857;BME280;63344;46.980;28.882;2023-06-10T03:15:00;100318.66;;;17.49;72.53
71857;BME280;63344;46.980;28.882;2023-06-10T03:17:28;100305.66;;;17.80;71.72
71857;BME280;63344;46.980;28.882;2023-06-10T03:19:55;100302.63;;;18.09;70.15
71857;BME280;63344;46.980;28.882;2023-06-10T03:22:23;100308.84;;;18.45;69.97
71857;BME280;63344;46.980;28.882;2023-06-10T03:24:50;100305.06;;;18.83;68.09
71857;BME280;63344;46.980;28.882;2023-06-10T03:27:17;100306.81;;;19.18;67.39
71857;BME280;63344;46.980;28.882;2023-06-10T03:29:45;100298.56;;;19.53;66.82
71857;BME280;63344;46.980;28.882;2023-06-10T03:32:12;100305.50;;;19.78;66.74
71857;BME280;63344;46.980;28.882;2023-06-10T03:34:40;100300.28;;;20.09;66.05
71857;BME280;63344;46.980;28.882;2023-06-10T03:37:07;100297.38;;;20.43;64.61
71857;BME280;63344;46.980;28.882;2023-06-10T03:39:35;100294.31;;;20.68;64.04
71857;BME280;63344;46.980;28.882;2023-06-10T03:42:02;100297.66;;;21.03;62.37
71857;BME280;63344;46.980;28.882;2023-06-10T03:44:29;100305.91;;;21.42;61.57
71857;BME280;63344;46.980;28.882;2023-06-10T03:46:57;100307.72;;;21.82;61.32
71857;BME280;63344;46.980;28.882;2023-06-10T03:49:24;100297.66;;;22.13;59.72
71857;BME280;63344;46.980;28.882;2023-06-10T03:51:53;100301.09;;;22.35;55.99
71857;BME280;63344;46.980;28.882;2023-06-10T03:54:21;100295.75;;;22.62;54.46
71857;BME280;63344;46.980;28.882;2023-06-10T03:56:49;100303.28;;;22.78;52.14
71857;BME280;63344;46.980;28.882;2023-06-10T03:59:16;100306.66;;;23.00;51.55
71857;BME280;63344;46.980;28.882;2023-06-10T04:01:43;100299.53;;;23.09;49.78
71857;BME280;63344;46.980;28.882;2023-06-10T04:04:14;100301.75;;;23.23;49.68
71857;BME280;63344;46.980;28.882;2023-06-10T04:06:43;100294.63;;;23.22;48.67
71857;BME280;63344;46.980;28.882;2023-06-10T04:09:11;100299.16;;;23.31;48.45
71857;BME280;63344;46.980;28.882;2023-06-10T04:11:40;100294.13;;;23.36;48.29
71857;BME280;63344;46.980;28.882;2023-06-10T04:14:11;100298.81;;;23.34;47.95
71857;BME280;63344;46.980;28.882;2023-06-10T04:16:39;100302.66;;;23.41;47.52
71857;BME280;63344;46.980;28.882;2023-06-10T04:19:08;100311.81;;;23.58;47.74
71857;BME280;63344;46.980;28.882;2023-06-10T04:21:35;100300.22;;;23.66;47.09
71857;BME280;63344;46.980;28.882;2023-06-10T04:24:03;100304.56;;;23.87;46.62
71857;BME280;63344;46.980;28.882;2023-06-10T04:26:31;100310.53;;;24.08;47.00
71857;BME280;63344;46.980;28.882;2023-06-10T04:28:58;100303.13;;;24.36;46.60
71857;BME280;63344;46.980;28.882;2023-06-10T04:31:26;100295.84;;;24.73;46.13
71857;BME280;63344;46.980;28.882;2023-06-10T04:33:53;100305.84;;;24.98;45.47
71857;BME280;63344;46.980;28.882;2023-06-10T04:36:21;100300.78;;;25.38;44.71
71857;BME280;63344;46.980;28.882;2023-06-10T04:38:49;100310.28;;;25.76;43.60
71857;BME280;63344;46.980;28.882;2023-06-10T04:41:18;100308.47;;;25.93;41.66
71857;BME280;63344;46.980;28.882;2023-06-10T04:43:46;100310.97;;;25.87;40.78
71857;BME280;63344;46.980;28.882;2023-06-10T04:46:13;100309.50;;;26.00;41.37
71857;BME280;63344;46.980;28.882;2023-06-10T04:48:41;100300.50;;;26.25;41.18
71857;BME280;63344;46.980;28.882;2023-06-10T04:51:09;100305.28;;;26.39;39.86
71857;BME280;63344;46.980;28.882;2023-06-10T04:53:37;100303.06;;;26.42;39.82
71857;BME280;63344;46.980;28.882;2023-06-10T04:56:07;100308.00;;;26.63;40.00
71857;BME280;63344;46.980;28.882;2023-06-10T04:58:35;100302.38;;;26.73;39.61
71857;BME280;63344;46.980;28.882;2023-06-10T05:01:04;100307.97;;;26.96;39.32
71857;BME280;63344;46.980;28.882;2023-06-10T05:03:32;100305.53;;;27.26;39.32
71857;BME280;63344;46.980;28.882;2023-06-10T05:05:59;100310.22;;;27.40;37.78
71857;BME280;63344;46.980;28.882;2023-06-10T05:08:27;100307.53;;;27.32;37.51
71857;BME280;63344;46.980;28.882;2023-06-10T05:10:54;100304.84;;;27.08;37.77
71857;BME280;63344;46.980;28.882;2023-06-10T05:13:22;100307.75;;;27.14;38.14
71857;BME280;63344;46.980;28.882;2023-06-10T05:15:49;100293.50;;;27.44;38.18
71857;BME280;63344;46.980;28.882;2023-06-10T05:18:18;100297.25;;;27.74;37.98
71857;BME280;63344;46.980;28.882;2023-06-10T05:20:45;100307.34;;;28.05;36.76
71857;BME280;63344;46.980;28.882;2023-06-10T05:23:14;100303.47;;;28.22;37.65
71857;BME280;63344;46.980;28.882;2023-06-10T05:25:41;100305.50;;;28.43;36.78
71857;BME280;63344;46.980;28.882;2023-06-10T05:28:10;100300.03;;;28.66;36.35
71857;BME280;63344;46.980;28.882;2023-06-10T05:30:41;100289.59;;;28.85;36.25
71857;BME280;63344;46.980;28.882;2023-06-10T05:33:09;100294.13;;;28.92;35.52
71857;BME280;63344;46.980;28.882;2023-06-10T05:35:36;100296.50;;;29.10;35.61
71857;BME280;63344;46.980;28.882;2023-06-10T05:38:04;100285.34;;;29.42;35.51
71857;BME280;63344;46.980;28.882;2023-06-10T05:40:32;100293.31;;;29.36;34.38
71857;BME280;63344;46.980;28.882;2023-06-10T05:43:00;100291.00;;;29.55;34.41
71857;BME280;63344;46.980;28.882;2023-06-10T05:45:27;100292.75;;;29.77;34.72
71857;BME280;63344;46.980;28.882;2023-06-10T05:47:55;100287.38;;;29.69;34.27
71857;BME280;63344;46.980;28.882;2023-06-10T05:50:24;100288.91;;;29.57;33.77
71857;BME280;63344;46.980;28.882;2023-06-10T05:52:52;100292.06;;;29.54;34.34
71857;BME280;63344;46.980;28.882;2023-06-10T05:55:20;100287.06;;;29.43;33.74
71857;BME280;63344;46.980;28.882;2023-06-10T05:57:58;100285.56;;;29.40;34.63
71857;BME280;63344;46.980;28.882;2023-06-10T06:00:27;100289.19;;;29.62;35.19
71857;BME280;63344;46.980;28.882;2023-06-10T06:02:54;100280.78;;;29.78;34.42
71857;BME280;63344;46.980;28.882;2023-06-10T06:05:22;100284.09;;;29.59;34.25
71857;BME280;63344;46.980;28.882;2023-06-10T06:07:50;100277.19;;;29.12;35.06
71857;BME280;63344;46.980;28.882;2023-06-10T06:10:18;100276.59;;;28.87;35.22
71857;BME280;63344;46.980;28.882;2023-06-10T06:12:47;100274.72;;;28.49;35.17
71857;BME280;63344;46.980;28.882;2023-06-10T06:15:14;100277.19;;;28.21;36.01
71857;BME280;63344;46.980;28.882;2023-06-10T06:17:42;100271.69;;;27.75;36.11
71857;BME280;63344;46.980;28.882;2023-06-10T06:20:10;100268.19;;;27.27;37.11
71857;BME280;63344;46.980;28.882;2023-06-10T06:22:38;100265.34;;;27.03;37.77
71857;BME280;63344;46.980;28.882;2023-06-10T06:25:05;100265.75;;;26.84;37.95
71857;BME280;63344;46.980;28.882;2023-06-10T06:27:34;100254.69;;;26.69;38.60
71857;BME280;63344;46.980;28.882;2023-06-10T06:30:02;100263.91;;;26.60;38.57
71857;BME280;63344;46.980;28.882;2023-06-10T06:32:30;100264.78;;;26.60;38.17
71857;BME280;63344;46.980;28.882;2023-06-10T06:34:58;100266.63;;;26.60;37.97
71857;BME280;63344;46.980;28.882;2023-06-10T06:37:26;100267.13;;;26.63;37.06
71857;BME280;63344;46.980;28.882;2023-06-10T06:39:53;100254.03;;;26.67;37.41
71857;BME280;63344;46.980;28.882;2023-06-10T06:42:21;100257.28;;;26.62;35.95
71857;BME280;63344;46.980;28.882;2023-06-10T06:44:48;100249.41;;;26.51;36.48
71857;BME280;63344;46.980;28.882;2023-06-10T06:47:16;100257.94;;;26.40;37.13
71857;BME280;63344;46.980;28.882;2023-06-10T06:49:47;100257.09;;;26.48;37.14
71857;BME280;63344;46.980;28.882;2023-06-10T06:52:15;100245.34;;;26.47;37.22
71857;BME280;63344;46.980;28.882;2023-06-10T06:54:42;100250.78;;;26.55;36.66
71857;BME280;63344;46.980;28.882;2023-06-10T06:57:10;100237.53;;;26.60;35.47
71857;BME280;63344;46.980;28.882;2023-06-10T06:59:38;100243.50;;;26.64;34.45
71857;BME280;63344;46.980;28.882;2023-06-10T07:02:07;100244.47;;;26.71;34.42
71857;BME280;63344;46.980;28.882;2023-06-10T07:04:35;100236.66;;;26.76;33.56
71857;BME280;63344;46.980;28.882;2023-06-10T07:07:04;100233.03;;;26.76;33.82
71857;BME280;63344;46.980;28.882;2023-06-10T07:09:34;100240.72;;;26.80;33.26
71857;BME280;63344;46.980;28.882;2023-06-10T07:12:02;100234.75;;;26.77;33.49
71857;BME280;63344;46.980;28.882;2023-06-10T07:14:31;100230.53;;;26.74;33.68
71857;BME280;63344;46.980;28.882;2023-06-10T07:17:00;100228.09;;;26.79;33.55
71857;BME280;63344;46.980;28.882;2023-06-10T07:19:27;100227.28;;;26.71;33.85
71857;BME280;63344;46.980;28.882;2023-06-10T07:21:55;100230.19;;;26.69;33.92
71857;BME280;63344;46.980;28.882;2023-06-10T07:24:22;100232.88;;;26.77;33.24
71857;BME280;63344;46.980;28.882;2023-06-10T07:26:50;100230.97;;;26.94;32.30
71857;BME280;63344;46.980;28.882;2023-06-10T07:29:17;100233.19;;;26.91;32.31
71857;BME280;63344;46.980;28.882;2023-06-10T07:31:45;100231.66;;;26.88;32.48
71857;BME280;63344;46.980;28.882;2023-06-10T07:34:13;100234.03;;;26.91;32.62
71857;BME280;63344;46.980;28.882;2023-06-10T07:36:40;100226.50;;;27.01;32.81
71857;BME280;63344;46.980;28.882;2023-06-10T07:39:08;100227.66;;;27.07;32.51
71857;BME280;63344;46.980;28.882;2023-06-10T07:41:36;100229.88;;;27.03;32.29
71857;BME280;63344;46.980;28.882;2023-06-10T07:44:04;100230.09;;;27.02;32.46
71857;BME280;63344;46.980;28.882;2023-06-10T07:46:32;100227.84;;;27.06;32.10
71857;BME280;63344;46.980;28.882;2023-06-10T07:48:59;100221.38;;;27.07;31.92
71857;BME280;63344;46.980;28.882;2023-06-10T07:51:28;100225.09;;;27.06;32.12
71857;BME280;63344;46.980;28.882;2023-06-10T07:53:55;100220.88;;;27.03;32.11
71857;BME280;63344;46.980;28.882;2023-06-10T07:56:23;100215.56;;;27.10;31.78
71857;BME280;63344;46.980;28.882;2023-06-10T07:58:50;100225.63;;;27.09;31.84
71857;BME280;63344;46.980;28.882;2023-06-10T08:01:18;100213.31;;;27.13;32.08
71857;BME280;63344;46.980;28.882;2023-06-10T08:03:46;100219.28;;;27.17;31.94
71857;BME280;63344;46.980;28.882;2023-06-10T08:06:18;100214.84;;;27.24;32.03
71857;BME280;63344;46.980;28.882;2023-06-10T08:08:46;100211.03;;;27.33;31.75
71857;BME280;63344;46.980;28.882;2023-06-10T08:11:14;100217.72;;;27.54;31.23
71857;BME280;63344;46.980;28.882;2023-06-10T08:13:42;100211.97;;;27.49;31.44
71857;BME280;63344;46.980;28.882;2023-06-10T08:16:10;100205.47;;;27.50;31.94
71857;BME280;63344;46.980;28.882;2023-06-10T08:18:37;100220.66;;;27.52;32.12
71857;BME280;63344;46.980;28.882;2023-06-10T08:21:05;100209.69;;;27.60;31.89
71857;BME280;63344;46.980;28.882;2023-06-10T08:23:35;100200.72;;;27.75;31.65
71857;BME280;63344;46.980;28.882;2023-06-10T08:26:03;100212.59;;;27.90;31.96
71857;BME280;63344;46.980;28.882;2023-06-10T08:28:30;100208.81;;;27.91;31.50
71857;BME280;63344;46.980;28.882;2023-06-10T08:30:58;100206.50;;;28.03;30.88
71857;BME280;63344;46.980;28.882;2023-06-10T08:33:25;100204.66;;;28.18;30.73
71857;BME280;63344;46.980;28.882;2023-06-10T08:35:53;100204.16;;;28.68;30.66
71857;BME280;63344;46.980;28.882;2023-06-10T08:38:21;100208.97;;;29.10;29.89
71857;BME280;63344;46.980;28.882;2023-06-10T08:40:52;100201.91;;;28.71;30.41
71857;BME280;63344;46.980;28.882;2023-06-10T08:43:32;100201.50;;;28.45;30.29
71857;BME280;63344;46.980;28.882;2023-06-10T08:46:01;100191.94;;;28.26;30.71
71857;BME280;63344;46.980;28.882;2023-06-10T08:48:29;100190.78;;;28.05;31.08
71857;BME280;63344;46.980;28.882;2023-06-10T08:50:58;100194.50;;;27.89;31.27
71857;BME280;63344;46.980;28.882;2023-06-10T08:53:29;100192.81;;;27.88;31.32
71857;BME280;63344;46.980;28.882;2023-06-10T08:56:00;100190.69;;;28.51;30.26
71857;BME280;63344;46.980;28.882;2023-06-10T08:58:32;100185.59;;;28.48;30.44
71857;BME280;63344;46.980;28.882;2023-06-10T09:01:01;100182.25;;;28.23;30.44
71857;BME280;63344;46.980;28.882;2023-06-10T09:03:28;100179.56;;;28.00;30.16
71857;BME280;63344;46.980;28.882;2023-06-10T09:05:57;100193.50;;;28.05;30.16
71857;BME280;63344;46.980;28.882;2023-06-10T09:08:25;100183.25;;;28.75;29.32
71857;BME280;63344;46.980;28.882;2023-06-10T09:10:55;100186.19;;;29.39;28.39
71857;BME280;63344;46.980;28.882;2023-06-10T09:13:23;100184.63;;;29.88;27.30
71857;BME280;63344;46.980;28.882;2023-06-10T09:15:53;100178.19;;;30.24;26.93
71857;BME280;63344;46.980;28.882;2023-06-10T09:18:24;100171.09;;;30.08;26.90
71857;BME280;63344;46.980;28.882;2023-06-10T09:20:51;100159.38;;;30.49;26.98
71857;BME280;63344;46.980;28.882;2023-06-10T09:23:21;100167.41;;;30.51;26.77
71857;BME280;63344;46.980;28.882;2023-06-10T09:25:56;100160.81;;;30.17;27.15
71857;BME280;63344;46.980;28.882;2023-06-10T09:28:25;100160.88;;;30.87;27.00
71857;BME280;63344;46.980;28.882;2023-06-10T09:31:04;100166.91;;;31.04;26.24
71857;BME280;63344;46.980;28.882;2023-06-10T09:33:33;100160.34;;;31.05;25.97
71857;BME280;63344;46.980;28.882;2023-06-10T09:36:02;100162.19;;;30.28;26.36
71857;BME280;63344;46.980;28.882;2023-06-10T09:38:32;100162.53;;;29.53;27.57
71857;BME280;63344;46.980;28.882;2023-06-10T09:41:00;100158.44;;;29.06;28.36
71857;BME280;63344;46.980;28.882;2023-06-10T09:43:56;100158.06;;;29.67;27.10
71857;BME280;63344;46.980;28.882;2023-06-10T09:46:24;100153.53;;;29.74;27.30
71857;BME280;63344;46.980;28.882;2023-06-10T09:48:57;100144.72;;;30.64;26.60
71857;BME280;63344;46.980;28.882;2023-06-10T09:51:25;100140.47;;;31.58;25.22
71857;BME280;63344;46.980;28.882;2023-06-10T09:53:53;100146.59;;;32.33;24.45
71857;BME280;63344;46.980;28.882;2023-06-10T09:56:21;100150.59;;;31.97;24.30
71857;BME280;63344;46.980;28.882;2023-06-10T09:59:00;100148.47;;;31.59;24.83
71857;BME280;63344;46.980;28.882;2023-06-10T10:01:27;100146.16;;;31.69;24.64
71857;BME280;63344;46.980;28.882;2023-06-10T10:03:55;100149.53;;;30.96;25.23
71857;BME280;63344;46.980;28.882;2023-06-10T10:06:22;100154.09;;;30.19;26.21
71857;BME280;63344;46.980;28.882;2023-06-10T10:08:50;100150.78;;;30.52;26.29
71857;BME280;63344;46.980;28.882;2023-06-10T10:11:20;100131.59;;;31.62;24.82
71857;BME280;63344;46.980;28.882;2023-06-10T10:13:53;100144.03;;;32.58;24.24
71857;BME280;63344;46.980;28.882;2023-06-10T10:16:42;100129.53;;;33.34;23.02
71857;BME280;63344;46.980;28.882;2023-06-10T10:19:19;100129.47;;;33.80;22.42
71857;BME280;63344;46.980;28.882;2023-06-10T10:21:53;100128.63;;;33.41;22.24
71857;BME280;63344;46.980;28.882;2023-06-10T10:24:23;100131.19;;;33.42;22.34
71857;BME280;63344;46.980;28.882;2023-06-10T10:26:59;100134.09;;;32.64;22.89
71857;BME280;63344;46.980;28.882;2023-06-10T10:29:31;100119.78;;;32.22;23.61
71857;BME280;63344;46.980;28.882;2023-06-10T10:32:16;100121.81;;;32.46;23.43
71857;BME280;63344;46.980;28.882;2023-06-10T10:34:50;100120.31;;;32.50;23.38
71857;BME280;63344;46.980;28.882;2023-06-10T10:37:22;100119.03;;;32.53;23.23
71857;BME280;63344;46.980;28.882;2023-06-10T10:39:51;100120.56;;;32.42;23.27
71857;BME280;63344;46.980;28.882;2023-06-10T10:42:18;100111.47;;;32.42;23.90
71857;BME280;63344;46.980;28.882;2023-06-10T10:44:46;100110.63;;;32.48;23.17
71857;BME280;63344;46.980;28.882;2023-06-10T10:47:15;100116.81;;;31.76;24.42
71857;BME280;63344;46.980;28.882;2023-06-10T10:49:45;100118.50;;;31.91;23.91
71857;BME280;63344;46.980;28.882;2023-06-10T10:52:14;100112.16;;;31.84;23.76
71857;BME280;63344;46.980;28.882;2023-06-10T10:54:46;100108.56;;;31.50;24.34
71857;BME280;63344;46.980;28.882;2023-06-10T10:57:23;100102.78;;;31.25;24.79
71857;BME280;63344;46.980;28.882;2023-06-10T10:59:53;100105.28;;;31.06;25.34
71857;BME280;63344;46.980;28.882;2023-06-10T11:02:44;100102.44;;;30.86;24.91
71857;BME280;63344;46.980;28.882;2023-06-10T11:05:15;100106.50;;;30.55;24.96
71857;BME280;63344;46.980;28.882;2023-06-10T11:07:55;100104.56;;;30.49;25.32
71857;BME280;63344;46.980;28.882;2023-06-10T11:10:36;100106.03;;;30.45;25.06
71857;BME280;63344;46.980;28.882;2023-06-10T11:13:10;100096.63;;;30.26;25.11
71857;BME280;63344;46.980;28.882;2023-06-10T11:15:44;100096.81;;;30.25;25.65
71857;BME280;63344;46.980;28.882;2023-06-10T11:18:28;100093.44;;;30.23;25.67
71857;BME280;63344;46.980;28.882;2023-06-10T11:20:57;100087.13;;;30.22;25.74
71857;BME280;63344;46.980;28.882;2023-06-10T11:23:34;100086.31;;;30.28;25.71
71857;BME280;63344;46.980;28.882;2023-06-10T11:29:01;100077.38;;;30.19;25.38
71857;BME280;63344;46.980;28.882;2023-06-10T11:31:30;100077.59;;;30.18;25.90
71857;BME280;63344;46.980;28.882;2023-06-10T11:34:03;100084.19;;;30.24;25.53
71857;BME280;63344;46.980;28.882;2023-06-10T11:36:41;100083.28;;;30.16;25.77
71857;BME280;63344;46.980;28.882;2023-06-10T11:39:10;100078.69;;;30.24;26.19
71857;BME280;63344;46.980;28.882;2023-06-10T11:41:39;100075.94;;;30.52;25.63
71857;BME280;63344;46.980;28.882;2023-06-10T11:44:09;100080.63;;;30.71;25.52
71857;BME280;63344;46.980;28.882;2023-06-10T11:46:38;100074.22;;;30.99;25.33
71857;BME280;63344;46.980;28.882;2023-06-10T11:49:07;100068.97;;;31.11;24.87
71857;BME280;63344;46.980;28.882;2023-06-10T11:51:37;100068.00;;;30.77;24.82
71857;BME280;63344;46.980;28.882;2023-06-10T11:54:10;100066.16;;;30.43;25.55
71857;BME280;63344;46.980;28.882;2023-06-10T11:56:39;100064.97;;;30.52;24.99
71857;BME280;63344;46.980;28.882;2023-06-10T11:59:07;100062.97;;;30.32;25.39
71857;BME280;63344;46.980;28.882;2023-06-10T12:01:37;100062.41;;;30.15;25.54
71857;BME280;63344;46.980;28.882;2023-06-10T12:04:14;100058.19;;;29.85;25.67
71857;BME280;63344;46.980;28.882;2023-06-10T12:06:49;100058.41;;;29.62;26.30
71857;BME280;63344;46.980;28.882;2023-06-10T12:11:59;100064.06;;;29.32;26.50
71857;BME280;63344;46.980;28.882;2023-06-10T12:14:56;100058.91;;;29.22;26.64
71857;BME280;63344;46.980;28.882;2023-06-10T12:20:03;100043.56;;;29.49;26.75
71857;BME280;63344;46.980;28.882;2023-06-10T12:22:44;100045.91;;;29.74;26.92
71857;BME280;63344;46.980;28.882;2023-06-10T12:25:11;100043.72;;;29.91;26.57
71857;BME280;63344;46.980;28.882;2023-06-10T12:27:53;100034.66;;;29.90;26.29
71857;BME280;63344;46.980;28.882;2023-06-10T12:30:22;100044.16;;;29.94;26.07
71857;BME280;63344;46.980;28.882;2023-06-10T12:32:53;100039.81;;;30.07;26.08
71857;BME280;63344;46.980;28.882;2023-06-10T12:35:26;100029.78;;;30.21;25.95
71857;BME280;63344;46.980;28.882;2023-06-10T12:38:01;100026.03;;;30.28;25.43
71857;BME280;63344;46.980;28.882;2023-06-10T12:40:34;100038.19;;;30.19;25.81
71857;BME280;63344;46.980;28.882;2023-06-10T13:52:56;99981.38;;;29.65;25.51
71857;BME280;63344;46.980;28.882;2023-06-10T13:55:24;99980.63;;;29.77;24.98
71857;BME280;63344;46.980;28.882;2023-06-10T13:57:51;99978.53;;;29.79;25.44
71857;BME280;63344;46.980;28.882;2023-06-10T14:00:19;99975.59;;;29.81;25.04
71857;BME280;63344;46.980;28.882;2023-06-10T14:02:46;99977.69;;;29.79;24.83
71857;BME280;63344;46.980;28.882;2023-06-10T14:05:14;99972.66;;;29.76;25.34
71857;BME280;63344;46.980;28.882;2023-06-10T14:07:41;99972.28;;;29.86;25.53
71857;BME280;63344;46.980;28.882;2023-06-10T14:10:09;99968.09;;;29.90;25.38
71857;BME280;63344;46.980;28.882;2023-06-10T14:12:37;99975.50;;;29.96;25.15